This is the latest recevied weather packets stored in our database for station/object W2SRH. If no packets are shown the sender has not sent any weather packets the latest 1 day(s).
| Time | Temp. | Humidity | Pressure | Rain* | Wind** | Luminosity | Snow |
|---|---|---|---|---|---|---|---|
| 1778049545 | 18.89° C | 68% | 1001.5 hPa | 0 mm | 0.45 m/s, 161° | - | - |
| 1778048347 | 18.89° C | 67% | 1001.6 hPa | 0 mm | 0.45 m/s, 170° | - | - |
| 1778047805 | 19.44° C | 64% | 1001.8 hPa | 0 mm | 0.45 m/s, 283° | - | - |
| 1778047745 | 18.89° C | 66% | 1001.6 hPa | 0 mm | 0.45 m/s, 170° | - | - |
| 1778047145 | 19.44° C | 66% | 1001.5 hPa | 0 mm | 0.89 m/s, 208° | - | - |
| 1778045945 | 19.44° C | 64% | 1001.8 hPa | 0 mm | 0.45 m/s, 283° | - | - |
| 1778045886 | 19.44° C | 63% | 1002.1 hPa | 0 mm | 0.45 m/s, 199° | - | - |
| 1778045345 | 19.44° C | 64% | 1001.8 hPa | 0 mm | 0.45 m/s, 191° | - | - |
| 1778044745 | 19.44° C | 63% | 1001.9 hPa | 0 mm | 0.45 m/s, 200° | - | - |
| 1778043544 | 19.44° C | 62% | 1002 hPa | 0 mm | 0.45 m/s, 150° | - | - |
| 1778042344 | 19.44° C | 61% | 1002.2 hPa | 0 mm | 0.45 m/s, 195° | - | - |
| 1778041144 | 20° C | 60% | 1002.1 hPa | 0 mm | 0.45 m/s, 171° | - | - |
| 1778040544 | 20° C | 59% | 1002.1 hPa | 0 mm | 0.45 m/s, 181° | - | - |
| 1778039344 | 20° C | 58% | 1001.9 hPa | 0 mm | 0.45 m/s, 222° | - | - |
| 1778038745 | 20.56° C | 57% | 1001.9 hPa | 0 mm | 0.89 m/s, 194° | - | - |
| 1778036946 | 20.56° C | 55% | 1002 hPa | 0 mm | 0.45 m/s, 189° | - | - |
| 1778036345 | 20.56° C | 54% | 1002.1 hPa | 0 mm | 0.45 m/s, 191° | - | - |
| 1778035745 | 20.56° C | 54% | 1002 hPa | 0 mm | 0.45 m/s, 233° | - | - |
| 1778035145 | 21.11° C | 53% | 1002.1 hPa | 0 mm | 0.89 m/s, 246° | - | - |
| 1778034545 | 21.11° C | 53% | 1002.1 hPa | 0 mm | 0.89 m/s, 232° | - | - |
| 1778033945 | 21.11° C | 53% | 1002.1 hPa | 0 mm | 0 m/s | - | - |
| 1778033344 | 21.11° C | 53% | 1002 hPa | 0 mm | 0.45 m/s, 168° | - | - |
| 1778032745 | 21.11° C | 53% | 1002.1 hPa | 0 mm | 0.45 m/s, 171° | - | - |
| 1778032144 | 21.11° C | 52% | 1001.9 hPa | 0 mm | 0.45 m/s, 174° | - | - |
| 1778031544 | 21.67° C | 52% | 1001.8 hPa | 0 mm | 0.89 m/s, 254° | - | - |
* Rain latest hour (hover to see other rain measurements)
** Current wind speed in m/s (hover to see current wind gust speed)